Сделать домашней страницей Добавить в избранное



Главная Новости 19 марта 2016 г.     


Boeing 737 авиакомпании fly Dubai разбился при посадке в Ростове-на-Дону

Тема: Катастрофа Boeing 737 авиакомпании fly Dubai в Ростове-на-Дону

Переслать новость другу

увеличить
Самолет Boeing 737 авиакомпании flydubai
Фото пресс-службы авиакомпании flydubai
Самолет Boeing 737 авиакомпании flydubai
Фото пресс-службы авиакомпании flydubai

19 марта, AEX.RU –  Пассажирский Boeing 737, летевший из Дубая в Ростова-на-Дону, упал левее взлетно-посадочной полосы аэропорта Ростова-на-Дону при посадке в условиях плохой видимости. Все находившиеся на борту погибли, сообщает РИА Новости.

Самолет авиакомпании FlyDubai потерпел катастрофу при повторном заходе на посадку, сообщил официальный представитель Минтранса. Инцидент произошел ориентировочно в 3.40 мск. Как заявили в Следственном комитете, при касании земли лайнер взорвался. По предварительным данным, Boeing зацепил хвостовой частью землю, сообщил источник в экстренных службах региона. По информации ГУ МЧС по Ростовской области, самолет при посадке задел крылом взлетно-посадочную полосу, начал разрушаться и загорелся.

Причиной катастрофы могла стать плохая погода. По словам губернатора Ростовской области Василия Голубева, другие версии кроме неблагоприятных погодных условий сейчас не рассматриваются.

По уточненным данным, на борту самолета находилось 62 человека: 55 пассажиров, в том числе 4 ребенка, и 7 членов экипажа. МЧС опубликовало список погибших, большинство пассажиров были гражданами России, также среди них пять иностранцев. Экипаж лайнера состоял из граждан разных государств, среди них один россиянин.

Аэропорт Ростова-на-Дону закрыт, он возобновит свою работу в 0.00 мск воскресенья, сообщили в пресс-службе. Пассажиров, которые должны были прилетать туда, готовы принять аэропорты Кавминвод и Краснодарского края. В ростовский аэропорт прибыли более 600 родственников погибших.

Президент России Владимир Путин выразил соболезнования семьям жертв катастрофы и поручил губернатору Ростовской области и главе МЧС сделать все необходимое для родственников погибших. Местные власти выплатят им по одному миллиону рублей.

На месте катастрофы работают бригады спасателей, а также усиленная следственно-криминалистическая группа СК России. По факту катастрофы самолета возбуждено дело по статье "нарушение правил безопасности движения и эксплуатации воздушного транспорта, повлекшее по неосторожности смерть двух и более лиц". В авиакомпании Fly Dubai заявили, что выясняют обстоятельства происшествия.



Другие сообщения

3 июня 2016 г.
 
25 мая 2016 г.
 
20 мая 2016 г.
 
20 мая 2016 г.
 
18 мая 2016 г.
 


← Назад | Вперед →  
 
 

AVIARU Network в соцсетях



комментарии (6):

Beer      19/03/2016 [09:45:35]#1
URRR 190100Z 24014G22MPS 3800 -SHRA BKN014 BKN033CB OVC100 06/04 Q0997 R22/290046 TEMPO 25017G25MPS 1000 SHRA BR SCT003 BKN020CB RMK QFE740/0987=
URRR 190030Z 24012G19MPS 6000 -SHRA SCT018 BKN036CB OVC100 06/04 Q0998 R22/290046 TEMPO 25017G25MPS 1000 SHRA BR SCT003 BKN020CB RMK QFE741/0988=
URRR 190000Z 24010MPS 8000 -SHRA SCT017 BKN040CB OVC100 06/03 Q0998 WS R22 R22/290046 TEMPO 25015G20MPS 1000 SHRA BR SCT003 BKN020CB RMK QFE741/0988=
URRR 182330Z 24012MPS 3900 -SHRA SCT019 BKN036CB OVC100 06/03 Q0999 WS R22 R22/290046 TEMPO 25015G20MPS 1000 SHRA BR SCT003 BKN020CB RMK QFE741/0989=

AVIADED      19/03/2016 [11:15:08]#2
2 ЧАСА САМОЛЕТ НАХОДИЛСЯ В ЗОНЕ ОЖИДАНИЯ (БУКВАЛЬНО В ВОЗДУХЕ ЖДАЛ У МОРЯ ПОГОДЫ) ПОСЛЕ НЕУДАЧНОГО ЗАХОДА НА ПОСАДКУ, ПРИ КОТОРОМ УЖЕ БЫЛО ПОНЯТНО ЧТО ВСЕ ОЧЕНЬ СЕРЬЕЗНО. ДАЛЕЕ 2 ЧАСА В УСЛОВИЯХ ИЗНУРЯЮЩЕЙ БОЛТАНКИ. ЖЕГ КЕРОСИН, КОТОРОГО БЫ ХВАТИЛО ДЛЯ УХОДА НА ЗАПАСНОЙ. ХОТЕЛОСЬ БЫ ПОНЯТЬ ЛОГИКУ КАПИТАНА. А ПОСЛЕ ЭТИХ 2 ЧАСОВ В ЗОНЕ ОЖИДАНИЯ КЕРОСИН ОСТАВАЛСЯ? ИЛИ УЖЕ НУЖНО БЫЛО ТОЧНО САДИТЬСЯ?
А ВОТ ВОПРОС К ДИСПЕТЧЕРАМ. НАВЕРНЯКА ОНИ ДЕЙСТВОВАЛИ В ЧЕТКОМ СООТВЕТСТВИИ С РУК. ДОКУМЕНТАМИ... РЕШЕНИЕ ПРИНИМАЕТ КВС..... НО НА ЗЕМЛЕ ЗА ОКНОМ ВЕДЬ ВИДНО ЧТО ПРОИСХОДИТ.. НАПРИМЕР, ДЕРЕВЬЯ ГНУТСЯ ОТ ПОРЫВОВ... ОСТАЛАСЬ ЛИ ВООБЩЕ, С СОВЕТСКИХ ВРЕМЕН ВОЗМОЖНОСТЬ ПРОСТО ЗАКРЫТЬ ПОРТ ПО МЕТЕО? ПОНЯТНО ЧТО У КАЖДОГО ВС И КВС СВОИ МИНИМУМЫ.... НО ГДЕ ЭТА КРАСНАЯ ЧЕРТА? МОЖЕТ ВСЕ ТАКИ ЛУЧШЕ ПЕРЕСТРАХОВЫВАТЬСЯ ?

AVIADED      19/03/2016 [11:17:57]#3
СОБОЛЕЗНОВАНИЯ РОДСТВЕННИКАМ ПОГИБШИХ! ПУСТЬ ЗЕМЛЯ ПОГИБШИМ БУДЕТ ПУХОМ!

Алекс Самолетов      19/03/2016 [13:22:35]#4
Для большого количества иностранных пилотов (знаю не по наслышке) их работа в воздухе стала восприниматься скорее как у водителя автобуса... Во многом утрачено чувство опасности и ответственности за здоровье и жизни тех, кто им доверился!!

P.S. Ведь ничего не подозревающих людей с собой забрали...

Мистер АЛ      19/03/2016 [14:08:04]#5
Так крылом зацепил или хвостом? А на видео он вообще под углом в землю втыкается.

aven1610      19/03/2016 [14:13:56]#6
Давайте пока не будем никого обвинять! У нас и так с обвинениями экипажа все нормально. Особенно когда вмешивается богатая фирма Boeing.




 

 







Новости






Архив:

Июнь
ПнВтСрЧтПтСбВс
  12345
6789101112
13141516171819
20212223242526
27282930  
 
РЕКЛАМА ОБРАТНАЯ СВЯЗЬ АККРЕДИТАЦИЯ ПРЕСС-СЛУЖБ

ЭКСПОРТ НОВОСТЕЙ/RSS

для КПК/PDA/Мобильного телефона

© Aviation Explorer
Rambler's Top100